Аэропорт: Кольцово. Екатеринбург

ICAO: USSS

METAR:
2019-07-23 18:30:00
USSS 231830Z 32003MPS 9000 -SHRA SCT028CB 16/15 Q1009 R26R/290035 TEMPO -TSRA RMK QFE736/0982
METAR:
2019-07-23 17:54:00
TAF AMD USSS 231754Z 2318/2418 35003G08MPS 9999 BKN020 SCT030CB TEMPO 2318/2321 -TSRA FM232100 01003MPS 3100 BR SCT011 TEMPO 2321/2403 0300 FG FM240300 02003G12MPS 9999 SCT020CB